sensor_id;sensor_type;location;lat;lon;timestamp;P1;durP1;ratioP1;P2;durP2;ratioP2
19255;SDS011;9762;52.490;13.410;2022-09-21T00:02:14;2.83;;;2.70;;
19255;SDS011;9762;52.490;13.410;2022-09-21T00:04:39;3.33;;;3.03;;
19255;SDS011;9762;52.490;13.410;2022-09-21T00:07:04;2.87;;;2.77;;
19255;SDS011;9762;52.490;13.410;2022-09-21T00:09:30;2.50;;;2.40;;
19255;SDS011;9762;52.490;13.410;2022-09-21T00:11:55;2.60;;;2.40;;
19255;SDS011;9762;52.490;13.410;2022-09-21T00:14:21;2.47;;;2.37;;
19255;SDS011;9762;52.490;13.410;2022-09-21T00:16:47;3.23;;;2.50;;
19255;SDS011;9762;52.490;13.410;2022-09-21T00:19:12;2.37;;;2.23;;
19255;SDS011;9762;52.490;13.410;2022-09-21T00:21:38;2.90;;;2.70;;
19255;SDS011;9762;52.490;13.410;2022-09-21T00:24:04;2.83;;;2.50;;
19255;SDS011;9762;52.490;13.410;2022-09-21T00:26:30;2.40;;;2.20;;
19255;SDS011;9762;52.490;13.410;2022-09-21T00:28:57;3.37;;;2.10;;
19255;SDS011;9762;52.490;13.410;2022-09-21T00:31:24;2.63;;;2.00;;
19255;SDS011;9762;52.490;13.410;2022-09-21T00:33:51;2.83;;;2.10;;
19255;SDS011;9762;52.490;13.410;2022-09-21T00:36:18;4.70;;;2.20;;
19255;SDS011;9762;52.490;13.410;2022-09-21T00:38:49;2.33;;;2.20;;
19255;SDS011;9762;52.490;13.410;2022-09-21T00:41:17;2.23;;;2.13;;
19255;SDS011;9762;52.490;13.410;2022-09-21T00:43:46;2.63;;;2.47;;
19255;SDS011;9762;52.490;13.410;2022-09-21T00:46:32;3.07;;;2.80;;
19255;SDS011;9762;52.490;13.410;2022-09-21T00:49:01;4.43;;;2.20;;
19255;SDS011;9762;52.490;13.410;2022-09-21T00:51:26;2.00;;;1.90;;
19255;SDS011;9762;52.490;13.410;2022-09-21T00:53:53;6.20;;;2.47;;
19255;SDS011;9762;52.490;13.410;2022-09-21T00:56:24;2.80;;;2.60;;
19255;SDS011;9762;52.490;13.410;2022-09-21T00:58:50;4.97;;;2.50;;
19255;SDS011;9762;52.490;13.410;2022-09-21T01:01:17;2.30;;;2.10;;
19255;SDS011;9762;52.490;13.410;2022-09-21T01:03:47;2.40;;;2.30;;
19255;SDS011;9762;52.490;13.410;2022-09-21T01:06:15;2.30;;;2.20;;
19255;SDS011;9762;52.490;13.410;2022-09-21T01:08:44;2.67;;;2.40;;
19255;SDS011;9762;52.490;13.410;2022-09-21T01:31:52;4.10;;;2.17;;
19255;SDS011;9762;52.490;13.410;2022-09-21T01:34:28;2.23;;;2.13;;
19255;SDS011;9762;52.490;13.410;2022-09-21T01:37:04;2.23;;;2.10;;
19255;SDS011;9762;52.490;13.410;2022-09-21T01:39:35;2.30;;;2.17;;
19255;SDS011;9762;52.490;13.410;2022-09-21T01:42:04;2.00;;;1.90;;
19255;SDS011;9762;52.490;13.410;2022-09-21T01:44:31;4.67;;;2.10;;
19255;SDS011;9762;52.490;13.410;2022-09-21T01:47:00;2.40;;;2.30;;
19255;SDS011;9762;52.490;13.410;2022-09-21T01:49:31;2.23;;;2.03;;
19255;SDS011;9762;52.490;13.410;2022-09-21T01:52:04;4.43;;;2.60;;
19255;SDS011;9762;52.490;13.410;2022-09-21T01:54:42;2.37;;;1.80;;
19255;SDS011;9762;52.490;13.410;2022-09-21T01:57:20;2.23;;;2.10;;
19255;SDS011;9762;52.490;13.410;2022-09-21T01:59:53;2.00;;;1.80;;
19255;SDS011;9762;52.490;13.410;2022-09-21T02:05:07;5.37;;;2.20;;
19255;SDS011;9762;52.490;13.410;2022-09-21T02:07:34;4.10;;;1.73;;
19255;SDS011;9762;52.490;13.410;2022-09-21T02:10:03;2.00;;;1.90;;
19255;SDS011;9762;52.490;13.410;2022-09-21T02:12:32;2.17;;;2.07;;
19255;SDS011;9762;52.490;13.410;2022-09-21T02:14:58;2.17;;;2.07;;
19255;SDS011;9762;52.490;13.410;2022-09-21T02:17:45;2.20;;;2.10;;
19255;SDS011;9762;52.490;13.410;2022-09-21T02:20:27;2.00;;;1.90;;
19255;SDS011;9762;52.490;13.410;2022-09-21T02:22:58;2.23;;;2.13;;
19255;SDS011;9762;52.490;13.410;2022-09-21T02:25:38;2.80;;;1.87;;
19255;SDS011;9762;52.490;13.410;2022-09-21T02:28:37;2.07;;;1.77;;
19255;SDS011;9762;52.490;13.410;2022-09-21T02:31:15;3.13;;;1.83;;
19255;SDS011;9762;52.490;13.410;2022-09-21T02:34:42;3.13;;;2.30;;
19255;SDS011;9762;52.490;13.410;2022-09-21T02:36:52;2.50;;;2.30;;
19255;SDS011;9762;52.490;13.410;2022-09-21T02:39:28;2.57;;;2.40;;
19255;SDS011;9762;52.490;13.410;2022-09-21T02:42:05;2.80;;;2.27;;
19255;SDS011;9762;52.490;13.410;2022-09-21T02:44:41;3.87;;;3.07;;
19255;SDS011;9762;52.490;13.410;2022-09-21T02:47:17;3.13;;;2.67;;
19255;SDS011;9762;52.490;13.410;2022-09-21T02:49:48;2.73;;;2.53;;
19255;SDS011;9762;52.490;13.410;2022-09-21T02:52:18;2.73;;;2.03;;
19255;SDS011;9762;52.490;13.410;2022-09-21T02:54:50;4.27;;;2.30;;
19255;SDS011;9762;52.490;13.410;2022-09-21T02:57:18;2.40;;;2.23;;
19255;SDS011;9762;52.490;13.410;2022-09-21T02:59:47;2.27;;;2.13;;
19255;SDS011;9762;52.490;13.410;2022-09-21T03:02:13;7.00;;;2.10;;
19255;SDS011;9762;52.490;13.410;2022-09-21T03:04:39;2.20;;;2.10;;
19255;SDS011;9762;52.490;13.410;2022-09-21T03:07:07;4.40;;;2.03;;
19255;SDS011;9762;52.490;13.410;2022-09-21T03:09:33;2.03;;;1.93;;
19255;SDS011;9762;52.490;13.410;2022-09-21T03:11:59;1.80;;;1.80;;
19255;SDS011;9762;52.490;13.410;2022-09-21T03:14:25;2.40;;;1.90;;
19255;SDS011;9762;52.490;13.410;2022-09-21T03:16:51;3.70;;;1.93;;
19255;SDS011;9762;52.490;13.410;2022-09-21T03:19:17;2.73;;;2.63;;
19255;SDS011;9762;52.490;13.410;2022-09-21T03:21:42;2.33;;;2.13;;
19255;SDS011;9762;52.490;13.410;2022-09-21T03:24:08;2.53;;;1.93;;
19255;SDS011;9762;52.490;13.410;2022-09-21T03:26:33;2.10;;;2.00;;
19255;SDS011;9762;52.490;13.410;2022-09-21T03:29:00;4.23;;;2.00;;
19255;SDS011;9762;52.490;13.410;2022-09-21T03:31:27;2.70;;;2.37;;
19255;SDS011;9762;52.490;13.410;2022-09-21T03:33:53;4.53;;;1.97;;
19255;SDS011;9762;52.490;13.410;2022-09-21T03:36:19;4.10;;;2.10;;
19255;SDS011;9762;52.490;13.410;2022-09-21T03:38:44;2.73;;;2.13;;
19255;SDS011;9762;52.490;13.410;2022-09-21T03:41:10;4.20;;;2.40;;
19255;SDS011;9762;52.490;13.410;2022-09-21T03:43:37;1.93;;;1.83;;
19255;SDS011;9762;52.490;13.410;2022-09-21T03:46:02;3.70;;;1.97;;
19255;SDS011;9762;52.490;13.410;2022-09-21T03:48:28;2.00;;;1.90;;
19255;SDS011;9762;52.490;13.410;2022-09-21T03:50:54;3.70;;;2.40;;
19255;SDS011;9762;52.490;13.410;2022-09-21T03:53:21;2.20;;;2.00;;
19255;SDS011;9762;52.490;13.410;2022-09-21T03:55:46;4.10;;;2.10;;
19255;SDS011;9762;52.490;13.410;2022-09-21T03:58:12;2.73;;;2.40;;
19255;SDS011;9762;52.490;13.410;2022-09-21T04:00:37;2.50;;;2.30;;
19255;SDS011;9762;52.490;13.410;2022-09-21T04:03:03;2.00;;;1.90;;
19255;SDS011;9762;52.490;13.410;2022-09-21T04:05:29;3.80;;;1.97;;
19255;SDS011;9762;52.490;13.410;2022-09-21T04:07:55;4.40;;;2.60;;
19255;SDS011;9762;52.490;13.410;2022-09-21T04:10:21;2.20;;;2.10;;
19255;SDS011;9762;52.490;13.410;2022-09-21T04:12:51;2.40;;;2.30;;
19255;SDS011;9762;52.490;13.410;2022-09-21T04:15:20;2.80;;;2.60;;
19255;SDS011;9762;52.490;13.410;2022-09-21T04:17:49;2.07;;;2.00;;
19255;SDS011;9762;52.490;13.410;2022-09-21T04:20:15;4.57;;;2.23;;
19255;SDS011;9762;52.490;13.410;2022-09-21T04:22:41;4.37;;;2.40;;
19255;SDS011;9762;52.490;13.410;2022-09-21T04:25:08;2.90;;;2.50;;
19255;SDS011;9762;52.490;13.410;2022-09-21T04:27:34;2.57;;;2.33;;
19255;SDS011;9762;52.490;13.410;2022-09-21T04:30:00;3.43;;;2.20;;
19255;SDS011;9762;52.490;13.410;2022-09-21T04:32:26;1.97;;;1.90;;
19255;SDS011;9762;52.490;13.410;2022-09-21T04:34:51;3.83;;;2.47;;
19255;SDS011;9762;52.490;13.410;2022-09-21T04:37:17;4.93;;;2.30;;
19255;SDS011;9762;52.490;13.410;2022-09-21T04:39:42;4.87;;;2.17;;
19255;SDS011;9762;52.490;13.410;2022-09-21T04:42:08;5.83;;;2.03;;
19255;SDS011;9762;52.490;13.410;2022-09-21T04:44:34;2.40;;;2.23;;
19255;SDS011;9762;52.490;13.410;2022-09-21T04:47:00;2.37;;;2.20;;
19255;SDS011;9762;52.490;13.410;2022-09-21T04:49:25;2.63;;;2.20;;
19255;SDS011;9762;52.490;13.410;2022-09-21T04:51:51;3.80;;;2.10;;
19255;SDS011;9762;52.490;13.410;2022-09-21T04:54:17;2.47;;;2.37;;
19255;SDS011;9762;52.490;13.410;2022-09-21T04:56:42;4.40;;;2.43;;
19255;SDS011;9762;52.490;13.410;2022-09-21T04:59:08;5.17;;;2.63;;
19255;SDS011;9762;52.490;13.410;2022-09-21T05:01:33;2.63;;;2.43;;
19255;SDS011;9762;52.490;13.410;2022-09-21T05:03:59;5.60;;;4.97;;
19255;SDS011;9762;52.490;13.410;2022-09-21T05:06:27;4.80;;;3.50;;
19255;SDS011;9762;52.490;13.410;2022-09-21T05:08:53;3.93;;;3.53;;
19255;SDS011;9762;52.490;13.410;2022-09-21T05:11:38;4.70;;;4.27;;
19255;SDS011;9762;52.490;13.410;2022-09-21T05:14:03;6.37;;;5.77;;
19255;SDS011;9762;52.490;13.410;2022-09-21T05:16:29;5.93;;;4.27;;
19255;SDS011;9762;52.490;13.410;2022-09-21T05:18:54;4.67;;;4.30;;
19255;SDS011;9762;52.490;13.410;2022-09-21T05:21:20;3.27;;;2.83;;
19255;SDS011;9762;52.490;13.410;2022-09-21T05:23:46;4.03;;;3.17;;
19255;SDS011;9762;52.490;13.410;2022-09-21T05:26:13;5.70;;;3.20;;
19255;SDS011;9762;52.490;13.410;2022-09-21T05:28:38;4.53;;;2.90;;
19255;SDS011;9762;52.490;13.410;2022-09-21T05:33:52;3.77;;;2.97;;
19255;SDS011;9762;52.490;13.410;2022-09-21T05:36:27;8.40;;;4.17;;
19255;SDS011;9762;52.490;13.410;2022-09-21T05:39:18;4.53;;;4.20;;
19255;SDS011;9762;52.490;13.410;2022-09-21T05:41:44;5.63;;;5.13;;
19255;SDS011;9762;52.490;13.410;2022-09-21T05:44:12;10.40;;;5.10;;
19255;SDS011;9762;52.490;13.410;2022-09-21T05:46:42;5.87;;;3.13;;
19255;SDS011;9762;52.490;13.410;2022-09-21T05:49:21;3.13;;;2.80;;
19255;SDS011;9762;52.490;13.410;2022-09-21T06:00:17;13.03;;;11.33;;
19255;SDS011;9762;52.490;13.410;2022-09-21T06:02:49;14.23;;;10.63;;
19255;SDS011;9762;52.490;13.410;2022-09-21T06:05:43;7.53;;;5.90;;
19255;SDS011;9762;52.490;13.410;2022-09-21T06:08:09;7.33;;;3.90;;
19255;SDS011;9762;52.490;13.410;2022-09-21T06:10:35;5.43;;;3.27;;
19255;SDS011;9762;52.490;13.410;2022-09-21T06:13:00;4.10;;;3.20;;
19255;SDS011;9762;52.490;13.410;2022-09-21T06:15:26;3.40;;;3.07;;
19255;SDS011;9762;52.490;13.410;2022-09-21T06:17:53;6.47;;;3.07;;
19255;SDS011;9762;52.490;13.410;2022-09-21T06:20:18;3.73;;;2.80;;
19255;SDS011;9762;52.490;13.410;2022-09-21T06:22:44;5.83;;;3.23;;
19255;SDS011;9762;52.490;13.410;2022-09-21T06:25:09;3.90;;;2.63;;
19255;SDS011;9762;52.490;13.410;2022-09-21T06:27:35;7.00;;;3.00;;
19255;SDS011;9762;52.490;13.410;2022-09-21T06:30:00;3.90;;;3.10;;
19255;SDS011;9762;52.490;13.410;2022-09-21T06:32:26;4.97;;;2.90;;
19255;SDS011;9762;52.490;13.410;2022-09-21T06:34:52;4.43;;;2.97;;
19255;SDS011;9762;52.490;13.410;2022-09-21T06:37:18;6.00;;;3.03;;
19255;SDS011;9762;52.490;13.410;2022-09-21T06:39:43;3.47;;;3.17;;
19255;SDS011;9762;52.490;13.410;2022-09-21T06:42:09;3.60;;;3.30;;
19255;SDS011;9762;52.490;13.410;2022-09-21T06:44:35;3.43;;;2.97;;
19255;SDS011;9762;52.490;13.410;2022-09-21T06:47:00;3.70;;;2.90;;
19255;SDS011;9762;52.490;13.410;2022-09-21T06:49:26;16.20;;;7.60;;
19255;SDS011;9762;52.490;13.410;2022-09-21T06:51:53;10.23;;;5.13;;
19255;SDS011;9762;52.490;13.410;2022-09-21T06:54:19;7.73;;;3.83;;
19255;SDS011;9762;52.490;13.410;2022-09-21T06:56:45;4.63;;;3.43;;
19255;SDS011;9762;52.490;13.410;2022-09-21T06:59:10;9.43;;;4.17;;
19255;SDS011;9762;52.490;13.410;2022-09-21T07:01:36;5.03;;;4.27;;
19255;SDS011;9762;52.490;13.410;2022-09-21T07:04:02;5.47;;;4.80;;
19255;SDS011;9762;52.490;13.410;2022-09-21T07:06:27;8.13;;;5.17;;
19255;SDS011;9762;52.490;13.410;2022-09-21T07:08:53;8.97;;;5.60;;
19255;SDS011;9762;52.490;13.410;2022-09-21T07:11:19;5.73;;;5.30;;
19255;SDS011;9762;52.490;13.410;2022-09-21T07:13:46;6.17;;;5.30;;
19255;SDS011;9762;52.490;13.410;2022-09-21T07:16:12;6.83;;;4.90;;
19255;SDS011;9762;52.490;13.410;2022-09-21T07:18:39;7.73;;;5.33;;
19255;SDS011;9762;52.490;13.410;2022-09-21T07:21:05;7.13;;;4.83;;
19255;SDS011;9762;52.490;13.410;2022-09-21T07:23:32;5.47;;;4.50;;
19255;SDS011;9762;52.490;13.410;2022-09-21T07:26:05;6.13;;;4.47;;
19255;SDS011;9762;52.490;13.410;2022-09-21T07:28:33;6.97;;;5.33;;
19255;SDS011;9762;52.490;13.410;2022-09-21T07:31:12;7.90;;;5.03;;
19255;SDS011;9762;52.490;13.410;2022-09-21T07:33:40;5.83;;;5.00;;
19255;SDS011;9762;52.490;13.410;2022-09-21T07:36:06;6.17;;;5.00;;
19255;SDS011;9762;52.490;13.410;2022-09-21T07:38:39;7.27;;;5.20;;
19255;SDS011;9762;52.490;13.410;2022-09-21T07:41:09;6.80;;;5.33;;
19255;SDS011;9762;52.490;13.410;2022-09-21T07:43:37;7.57;;;5.97;;
19255;SDS011;9762;52.490;13.410;2022-09-21T07:46:09;8.47;;;5.27;;
19255;SDS011;9762;52.490;13.410;2022-09-21T07:48:36;11.50;;;5.63;;
19255;SDS011;9762;52.490;13.410;2022-09-21T07:51:03;6.47;;;5.23;;
19255;SDS011;9762;52.490;13.410;2022-09-21T07:53:30;9.30;;;5.53;;
19255;SDS011;9762;52.490;13.410;2022-09-21T07:56:04;6.27;;;4.47;;
19255;SDS011;9762;52.490;13.410;2022-09-21T07:58:31;5.20;;;4.53;;
19255;SDS011;9762;52.490;13.410;2022-09-21T08:01:15;4.70;;;4.30;;
19255;SDS011;9762;52.490;13.410;2022-09-21T08:03:41;4.93;;;4.10;;
19255;SDS011;9762;52.490;13.410;2022-09-21T08:06:07;6.50;;;4.50;;
19255;SDS011;9762;52.490;13.410;2022-09-21T08:08:33;4.27;;;3.87;;
19255;SDS011;9762;52.490;13.410;2022-09-21T08:11:05;5.50;;;3.73;;
19255;SDS011;9762;52.490;13.410;2022-09-21T08:13:31;7.90;;;3.67;;
19255;SDS011;9762;52.490;13.410;2022-09-21T08:16:00;5.07;;;3.83;;
19255;SDS011;9762;52.490;13.410;2022-09-21T08:18:27;5.37;;;4.13;;
19255;SDS011;9762;52.490;13.410;2022-09-21T08:20:56;6.93;;;4.07;;
19255;SDS011;9762;52.490;13.410;2022-09-21T08:23:23;9.20;;;3.90;;
19255;SDS011;9762;52.490;13.410;2022-09-21T08:25:50;4.60;;;3.30;;
19255;SDS011;9762;52.490;13.410;2022-09-21T08:28:16;4.67;;;3.30;;
19255;SDS011;9762;52.490;13.410;2022-09-21T08:30:42;4.53;;;3.63;;
19255;SDS011;9762;52.490;13.410;2022-09-21T08:33:08;6.73;;;4.50;;
19255;SDS011;9762;52.490;13.410;2022-09-21T08:35:34;8.73;;;4.00;;
19255;SDS011;9762;52.490;13.410;2022-09-21T08:38:00;4.10;;;3.80;;
19255;SDS011;9762;52.490;13.410;2022-09-21T08:40:26;5.37;;;3.93;;
19255;SDS011;9762;52.490;13.410;2022-09-21T08:45:40;7.57;;;4.70;;
19255;SDS011;9762;52.490;13.410;2022-09-21T08:48:27;4.17;;;3.77;;
19255;SDS011;9762;52.490;13.410;2022-09-21T08:50:56;6.50;;;4.40;;
19255;SDS011;9762;52.490;13.410;2022-09-21T08:53:32;9.13;;;4.33;;
19255;SDS011;9762;52.490;13.410;2022-09-21T08:56:00;9.07;;;5.27;;
19255;SDS011;9762;52.490;13.410;2022-09-21T08:58:27;5.27;;;4.50;;
19255;SDS011;9762;52.490;13.410;2022-09-21T09:03:45;9.97;;;4.70;;
19255;SDS011;9762;52.490;13.410;2022-09-21T09:06:22;6.27;;;4.63;;
19255;SDS011;9762;52.490;13.410;2022-09-21T09:09:18;7.40;;;5.17;;
19255;SDS011;9762;52.490;13.410;2022-09-21T09:12:00;6.93;;;4.80;;
19255;SDS011;9762;52.490;13.410;2022-09-21T09:20:23;8.80;;;4.43;;
19255;SDS011;9762;52.490;13.410;2022-09-21T09:26:10;5.80;;;4.23;;
19255;SDS011;9762;52.490;13.410;2022-09-21T09:28:41;8.60;;;4.83;;
19255;SDS011;9762;52.490;13.410;2022-09-21T09:31:18;5.37;;;4.13;;
19255;SDS011;9762;52.490;13.410;2022-09-21T09:34:06;5.77;;;3.70;;
19255;SDS011;9762;52.490;13.410;2022-09-21T09:36:41;7.40;;;3.60;;
19255;SDS011;9762;52.490;13.410;2022-09-21T09:39:11;5.20;;;3.93;;
19255;SDS011;9762;52.490;13.410;2022-09-21T09:44:29;6.77;;;3.10;;
19255;SDS011;9762;52.490;13.410;2022-09-21T09:49:38;4.07;;;2.90;;
19255;SDS011;9762;52.490;13.410;2022-09-21T09:52:24;4.43;;;3.93;;
19255;SDS011;9762;52.490;13.410;2022-09-21T09:54:50;5.43;;;2.83;;
19255;SDS011;9762;52.490;13.410;2022-09-21T09:57:19;5.63;;;2.97;;
19255;SDS011;9762;52.490;13.410;2022-09-21T09:59:52;3.63;;;2.43;;
19255;SDS011;9762;52.490;13.410;2022-09-21T10:07:19;4.63;;;2.67;;
19255;SDS011;9762;52.490;13.410;2022-09-21T10:09:44;5.43;;;2.70;;
19255;SDS011;9762;52.490;13.410;2022-09-21T10:12:22;2.50;;;2.30;;
19255;SDS011;9762;52.490;13.410;2022-09-21T10:14:50;4.53;;;2.30;;
19255;SDS011;9762;52.490;13.410;2022-09-21T10:17:17;4.00;;;1.97;;
19255;SDS011;9762;52.490;13.410;2022-09-21T10:19:43;4.23;;;1.90;;
19255;SDS011;9762;52.490;13.410;2022-09-21T10:22:16;3.87;;;2.20;;
19255;SDS011;9762;52.490;13.410;2022-09-21T10:24:50;5.47;;;1.90;;
19255;SDS011;9762;52.490;13.410;2022-09-21T10:27:25;1.77;;;1.67;;
19255;SDS011;9762;52.490;13.410;2022-09-21T10:29:52;1.23;;;1.23;;
19255;SDS011;9762;52.490;13.410;2022-09-21T10:32:19;1.40;;;1.30;;
19255;SDS011;9762;52.490;13.410;2022-09-21T10:37:44;2.17;;;1.03;;
19255;SDS011;9762;52.490;13.410;2022-09-21T10:42:41;1.40;;;1.10;;
19255;SDS011;9762;52.490;13.410;2022-09-21T10:45:17;2.40;;;1.27;;
19255;SDS011;9762;52.490;13.410;2022-09-21T10:47:49;5.47;;;1.53;;
19255;SDS011;9762;52.490;13.410;2022-09-21T10:53:33;1.70;;;1.10;;
19255;SDS011;9762;52.490;13.410;2022-09-21T10:58:20;1.50;;;1.20;;
19255;SDS011;9762;52.490;13.410;2022-09-21T11:00:46;3.83;;;1.20;;
19255;SDS011;9762;52.490;13.410;2022-09-21T11:06:04;1.25;;;0.90;;
19255;SDS011;9762;52.490;13.410;2022-09-21T11:08:35;3.60;;;1.02;;
19255;SDS011;9762;52.490;13.410;2022-09-21T11:13:49;1.10;;;1.10;;
19255;SDS011;9762;52.490;13.410;2022-09-21T11:16:27;1.08;;;1.08;;
19255;SDS011;9762;52.490;13.410;2022-09-21T11:24:51;1.15;;;1.15;;
19255;SDS011;9762;52.490;13.410;2022-09-21T11:27:32;1.15;;;1.10;;
19255;SDS011;9762;52.490;13.410;2022-09-21T11:30:14;1.25;;;1.15;;
19255;SDS011;9762;52.490;13.410;2022-09-21T11:35:46;1.55;;;0.93;;
19255;SDS011;9762;52.490;13.410;2022-09-21T11:38:21;5.70;;;1.20;;
19255;SDS011;9762;52.490;13.410;2022-09-21T11:46:24;1.30;;;0.98;;
19255;SDS011;9762;52.490;13.410;2022-09-21T11:57:21;2.15;;;1.10;;
19255;SDS011;9762;52.490;13.410;2022-09-21T12:00:15;1.00;;;1.00;;
19255;SDS011;9762;52.490;13.410;2022-09-21T12:05:55;1.33;;;1.08;;
19255;SDS011;9762;52.490;13.410;2022-09-21T12:08:43;0.90;;;0.90;;
19255;SDS011;9762;52.490;13.410;2022-09-21T12:19:42;0.80;;;0.80;;
19255;SDS011;9762;52.490;13.410;2022-09-21T12:22:21;0.70;;;0.70;;
19255;SDS011;9762;52.490;13.410;2022-09-21T12:24:53;1.80;;;1.20;;
19255;SDS011;9762;52.490;13.410;2022-09-21T12:27:38;1.00;;;1.00;;
19255;SDS011;9762;52.490;13.410;2022-09-21T12:30:11;2.58;;;1.45;;
19255;SDS011;9762;52.490;13.410;2022-09-21T12:35:18;1.42;;;1.42;;
19255;SDS011;9762;52.490;13.410;2022-09-21T12:40:47;2.20;;;1.00;;
19255;SDS011;9762;52.490;13.410;2022-09-21T12:43:25;1.67;;;1.00;;
19255;SDS011;9762;52.490;13.410;2022-09-21T12:46:06;1.23;;;1.23;;
19255;SDS011;9762;52.490;13.410;2022-09-21T12:48:38;1.10;;;1.10;;
19255;SDS011;9762;52.490;13.410;2022-09-21T12:53:43;1.50;;;0.98;;
19255;SDS011;9762;52.490;13.410;2022-09-21T12:56:13;1.38;;;1.10;;
19255;SDS011;9762;52.490;13.410;2022-09-21T13:04:49;1.48;;;1.17;;
19255;SDS011;9762;52.490;13.410;2022-09-21T13:07:37;2.10;;;1.10;;
19255;SDS011;9762;52.490;13.410;2022-09-21T13:12:56;5.53;;;1.70;;
19255;SDS011;9762;52.490;13.410;2022-09-21T13:15:26;2.00;;;1.40;;
19255;SDS011;9762;52.490;13.410;2022-09-21T13:18:03;2.75;;;1.55;;
19255;SDS011;9762;52.490;13.410;2022-09-21T13:20:37;1.27;;;1.20;;
19255;SDS011;9762;52.490;13.410;2022-09-21T13:23:05;2.15;;;1.60;;
19255;SDS011;9762;52.490;13.410;2022-09-21T13:26:00;2.50;;;1.27;;
19255;SDS011;9762;52.490;13.410;2022-09-21T13:29:23;1.40;;;1.40;;
19255;SDS011;9762;52.490;13.410;2022-09-21T13:34:24;1.08;;;1.08;;
19255;SDS011;9762;52.490;13.410;2022-09-21T13:45:05;1.20;;;1.15;;
19255;SDS011;9762;52.490;13.410;2022-09-21T13:47:49;1.67;;;1.20;;
19255;SDS011;9762;52.490;13.410;2022-09-21T13:50:50;1.30;;;1.30;;
19255;SDS011;9762;52.490;13.410;2022-09-21T13:53:22;1.40;;;1.40;;
19255;SDS011;9762;52.490;13.410;2022-09-21T13:55:54;1.65;;;1.55;;
19255;SDS011;9762;52.490;13.410;2022-09-21T13:58:29;1.33;;;1.30;;
19255;SDS011;9762;52.490;13.410;2022-09-21T14:00:59;1.60;;;1.60;;
19255;SDS011;9762;52.490;13.410;2022-09-21T14:03:38;1.70;;;1.60;;
19255;SDS011;9762;52.490;13.410;2022-09-21T14:08:44;1.65;;;1.65;;
19255;SDS011;9762;52.490;13.410;2022-09-21T14:11:14;2.30;;;2.20;;
19255;SDS011;9762;52.490;13.410;2022-09-21T14:17:40;2.58;;;1.55;;
19255;SDS011;9762;52.490;13.410;2022-09-21T14:28:45;3.58;;;1.50;;
19255;SDS011;9762;52.490;13.410;2022-09-21T14:31:16;1.50;;;1.50;;
19255;SDS011;9762;52.490;13.410;2022-09-21T14:33:52;1.75;;;1.60;;
19255;SDS011;9762;52.490;13.410;2022-09-21T14:36:21;1.40;;;1.30;;
19255;SDS011;9762;52.490;13.410;2022-09-21T14:41:59;1.48;;;1.42;;
19255;SDS011;9762;52.490;13.410;2022-09-21T14:44:29;1.45;;;1.30;;
19255;SDS011;9762;52.490;13.410;2022-09-21T15:00:18;1.85;;;1.13;;
19255;SDS011;9762;52.490;13.410;2022-09-21T15:12:16;2.47;;;1.77;;
19255;SDS011;9762;52.490;13.410;2022-09-21T15:15:19;2.87;;;2.13;;
19255;SDS011;9762;52.490;13.410;2022-09-21T15:17:58;2.07;;;1.50;;
19255;SDS011;9762;52.490;13.410;2022-09-21T15:20:27;1.50;;;1.40;;
19255;SDS011;9762;52.490;13.410;2022-09-21T15:22:58;0.90;;;0.90;;
19255;SDS011;9762;52.490;13.410;2022-09-21T15:25:25;1.10;;;1.10;;
19255;SDS011;9762;52.490;13.410;2022-09-21T15:27:52;1.33;;;1.10;;
19255;SDS011;9762;52.490;13.410;2022-09-21T15:32:53;1.10;;;1.10;;
19255;SDS011;9762;52.490;13.410;2022-09-21T15:35:25;0.87;;;0.87;;
19255;SDS011;9762;52.490;13.410;2022-09-21T15:37:59;1.00;;;1.00;;
19255;SDS011;9762;52.490;13.410;2022-09-21T15:40:27;1.90;;;1.00;;
19255;SDS011;9762;52.490;13.410;2022-09-21T15:45:25;0.93;;;0.93;;
19255;SDS011;9762;52.490;13.410;2022-09-21T15:47:53;1.10;;;1.00;;
19255;SDS011;9762;52.490;13.410;2022-09-21T15:50:19;4.00;;;1.17;;
19255;SDS011;9762;52.490;13.410;2022-09-21T15:52:58;1.90;;;1.80;;
19255;SDS011;9762;52.490;13.410;2022-09-21T15:55:28;1.53;;;1.10;;
19255;SDS011;9762;52.490;13.410;2022-09-21T15:57:55;1.10;;;1.10;;
19255;SDS011;9762;52.490;13.410;2022-09-21T16:00:31;4.90;;;1.30;;
19255;SDS011;9762;52.490;13.410;2022-09-21T16:03:00;1.07;;;1.07;;
19255;SDS011;9762;52.490;13.410;2022-09-21T16:05:48;0.90;;;0.90;;
19255;SDS011;9762;52.490;13.410;2022-09-21T16:08:28;0.80;;;0.80;;
19255;SDS011;9762;52.490;13.410;2022-09-21T16:11:16;3.10;;;1.03;;
19255;SDS011;9762;52.490;13.410;2022-09-21T16:13:47;1.10;;;1.10;;
19255;SDS011;9762;52.490;13.410;2022-09-21T16:22:11;1.20;;;1.20;;
19255;SDS011;9762;52.490;13.410;2022-09-21T16:24:45;1.40;;;1.30;;
19255;SDS011;9762;52.490;13.410;2022-09-21T16:27:16;4.47;;;1.50;;
19255;SDS011;9762;52.490;13.410;2022-09-21T16:29:43;1.40;;;1.30;;
19255;SDS011;9762;52.490;13.410;2022-09-21T16:34:42;4.57;;;1.30;;
19255;SDS011;9762;52.490;13.410;2022-09-21T16:37:20;2.63;;;2.43;;
19255;SDS011;9762;52.490;13.410;2022-09-21T16:39:48;5.57;;;4.00;;
19255;SDS011;9762;52.490;13.410;2022-09-21T16:42:18;2.73;;;2.53;;
19255;SDS011;9762;52.490;13.410;2022-09-21T16:44:44;2.20;;;2.10;;
19255;SDS011;9762;52.490;13.410;2022-09-21T16:47:11;2.30;;;2.13;;
19255;SDS011;9762;52.490;13.410;2022-09-21T16:49:39;4.17;;;1.63;;
19255;SDS011;9762;52.490;13.410;2022-09-21T16:52:05;1.57;;;1.57;;
19255;SDS011;9762;52.490;13.410;2022-09-21T16:54:31;2.47;;;1.60;;
19255;SDS011;9762;52.490;13.410;2022-09-21T16:56:58;1.73;;;1.40;;
19255;SDS011;9762;52.490;13.410;2022-09-21T16:59:25;1.93;;;1.83;;
19255;SDS011;9762;52.490;13.410;2022-09-21T17:01:52;1.73;;;1.63;;
19255;SDS011;9762;52.490;13.410;2022-09-21T17:04:20;2.07;;;1.97;;
19255;SDS011;9762;52.490;13.410;2022-09-21T17:06:47;1.90;;;1.80;;
19255;SDS011;9762;52.490;13.410;2022-09-21T17:12:15;2.43;;;2.23;;
19255;SDS011;9762;52.490;13.410;2022-09-21T17:14:42;3.97;;;2.33;;
19255;SDS011;9762;52.490;13.410;2022-09-21T17:17:12;2.13;;;2.03;;
19255;SDS011;9762;52.490;13.410;2022-09-21T17:19:42;1.93;;;1.83;;
19255;SDS011;9762;52.490;13.410;2022-09-21T17:22:10;2.00;;;1.90;;
19255;SDS011;9762;52.490;13.410;2022-09-21T17:24:41;1.97;;;1.87;;
19255;SDS011;9762;52.490;13.410;2022-09-21T17:27:09;2.77;;;1.90;;
19255;SDS011;9762;52.490;13.410;2022-09-21T17:29:36;2.90;;;1.63;;
19255;SDS011;9762;52.490;13.410;2022-09-21T17:32:04;7.40;;;2.50;;
19255;SDS011;9762;52.490;13.410;2022-09-21T17:34:33;3.47;;;2.50;;
19255;SDS011;9762;52.490;13.410;2022-09-21T17:36:59;3.73;;;2.27;;
19255;SDS011;9762;52.490;13.410;2022-09-21T17:39:25;4.20;;;3.80;;
19255;SDS011;9762;52.490;13.410;2022-09-21T17:41:52;5.33;;;4.83;;
19255;SDS011;9762;52.490;13.410;2022-09-21T17:47:08;3.43;;;3.23;;
19255;SDS011;9762;52.490;13.410;2022-09-21T17:49:51;2.70;;;2.50;;
19255;SDS011;9762;52.490;13.410;2022-09-21T17:52:19;3.97;;;2.50;;
19255;SDS011;9762;52.490;13.410;2022-09-21T17:55:05;2.90;;;2.60;;
19255;SDS011;9762;52.490;13.410;2022-09-21T18:02:55;7.97;;;6.80;;
19255;SDS011;9762;52.490;13.410;2022-09-21T18:05:23;7.07;;;6.40;;
19255;SDS011;9762;52.490;13.410;2022-09-21T18:07:50;11.00;;;9.10;;
19255;SDS011;9762;52.490;13.410;2022-09-21T18:10:20;10.47;;;9.47;;
19255;SDS011;9762;52.490;13.410;2022-09-21T18:12:51;17.30;;;12.93;;
19255;SDS011;9762;52.490;13.410;2022-09-21T18:15:39;15.20;;;12.87;;
19255;SDS011;9762;52.490;13.410;2022-09-21T18:21:04;12.70;;;11.50;;
19255;SDS011;9762;52.490;13.410;2022-09-21T18:26:17;12.47;;;9.67;;
19255;SDS011;9762;52.490;13.410;2022-09-21T18:28:45;11.60;;;9.33;;
19255;SDS011;9762;52.490;13.410;2022-09-21T18:36:43;10.50;;;8.87;;
19255;SDS011;9762;52.490;13.410;2022-09-21T18:44:38;6.23;;;5.63;;
19255;SDS011;9762;52.490;13.410;2022-09-21T18:47:19;7.27;;;6.10;;
19255;SDS011;9762;52.490;13.410;2022-09-21T18:55:27;6.43;;;5.20;;